Time;durP1;ratioP1;P1;durP2;ratioP2;P2;SDS_P1;SDS_P2;PMS_P1;PMS_P2;Temp;Humidity;BMP_temperature;BMP_pressure;BME280_temperature;BME280_humidity;BME280_pressure;Samples;Min_cycle;Max_cycle;Signal;HPM_P1;HPM_P2
2021/12/18 00:00:16;;;;;;;54.23;28.87;;;7.10;99.90;;;;;;5071394;28;20191;-65
2021/12/18 00:02:44;;;;;;;53.30;28.67;;;7.10;99.90;;;;;;5081685;28;20289;-65
2021/12/18 00:05:16;;;;;;;57.50;29.57;;;7.10;99.90;;;;;;5059370;28;20600;-64
2021/12/18 00:07:47;;;;;;;51.23;28.40;;;7.10;99.90;;;;;;5079550;28;20204;-65
2021/12/18 00:10:20;;;;;;;54.10;28.50;;;7.00;99.90;;;;;;5064596;28;20333;-64
2021/12/18 00:12:50;;;;;;;58.10;29.90;;;7.00;99.90;;;;;;5063294;28;20198;-64
2021/12/18 00:15:22;;;;;;;62.50;30.57;;;7.00;99.90;;;;;;5074469;28;20277;-64
2021/12/18 00:17:51;;;;;;;55.20;30.67;;;7.00;99.90;;;;;;5081643;28;20205;-64
2021/12/18 00:20:23;;;;;;;55.30;28.30;;;7.00;99.90;;;;;;5079122;28;20214;-64
2021/12/18 00:22:52;;;;;;;56.13;29.00;;;7.00;99.90;;;;;;5061798;28;20202;-65
2021/12/18 00:25:21;;;;;;;54.00;28.80;;;7.00;99.90;;;;;;5082255;28;20716;-65
2021/12/18 00:27:49;;;;;;;56.87;29.07;;;7.00;99.90;;;;;;5085749;28;20245;-65
2021/12/18 00:30:18;;;;;;;52.40;28.37;;;7.00;99.90;;;;;;5085138;28;20216;-65
2021/12/18 00:32:47;;;;;;;52.40;27.90;;;7.00;99.90;;;;;;5080726;28;20784;-65
2021/12/18 00:35:17;;;;;;;53.20;28.53;;;7.10;99.90;;;;;;5079363;28;20200;-64
2021/12/18 00:37:50;;;;;;;56.93;29.03;;;7.10;99.90;;;;;;5083074;28;20186;-65
2021/12/18 00:40:24;;;;;;;51.93;28.23;;;7.10;99.90;;;;;;5084132;28;20188;-64
2021/12/18 00:43:02;;;;;;;54.50;29.47;;;7.10;99.90;;;;;;5080412;28;20194;-65
2021/12/18 00:45:31;;;;;;;56.33;29.73;;;7.10;99.90;;;;;;5085051;28;20219;-65
2021/12/18 00:48:00;;;;;;;58.77;31.13;;;7.10;99.90;;;;;;5068527;28;20258;-65
2021/12/18 00:50:30;;;;;;;57.27;29.70;;;7.10;99.90;;;;;;5084244;28;20219;-65
2021/12/18 00:53:02;;;;;;;55.70;29.47;;;7.10;99.90;;;;;;5084411;28;20199;-65
2021/12/18 00:55:33;;;;;;;57.30;31.00;;;7.10;99.90;;;;;;5085512;28;20225;-65
2021/12/18 00:58:02;;;;;;;58.60;30.77;;;7.20;99.90;;;;;;5087414;28;20253;-65
2021/12/18 01:00:34;;;;;;;61.00;30.00;;;7.20;99.90;;;;;;5077743;28;20249;-65
2021/12/18 01:03:18;;;;;;;60.57;30.17;;;7.20;99.90;;;;;;5080394;28;20685;-65
2021/12/18 01:05:47;;;;;;;55.97;30.60;;;7.20;99.90;;;;;;5063550;28;20192;-65
2021/12/18 01:08:18;;;;;;;55.53;29.97;;;7.20;99.90;;;;;;5082749;28;20597;-64
2021/12/18 01:11:07;;;;;;;57.40;30.43;;;7.20;99.90;;;;;;5084244;28;20225;-65
2021/12/18 01:13:47;;;;;;;56.83;30.03;;;7.20;99.90;;;;;;5058148;28;20220;-65
2021/12/18 01:16:20;;;;;;;60.83;30.90;;;7.20;99.90;;;;;;5080911;28;20195;-64
2021/12/18 01:24:23;;;;;;;62.13;31.40;;;7.20;99.90;;;;;;5080150;28;20230;-65
2021/12/18 01:26:51;;;;;;;56.73;29.70;;;7.20;99.90;;;;;;5074709;28;20204;-65
2021/12/18 01:29:20;;;;;;;57.37;30.53;;;7.20;99.90;;;;;;5077633;28;20198;-65
2021/12/18 01:31:48;;;;;;;60.97;31.27;;;7.20;99.90;;;;;;5084547;28;20206;-64
2021/12/18 01:34:17;;;;;;;61.33;31.53;;;7.20;99.90;;;;;;5082302;28;20195;-64
2021/12/18 01:36:49;;;;;;;59.50;30.57;;;7.20;99.90;;;;;;5082636;28;20227;-65
2021/12/18 01:39:17;;;;;;;63.67;31.47;;;7.20;99.90;;;;;;5081283;28;20199;-65
2021/12/18 01:42:03;;;;;;;60.40;30.70;;;7.20;99.90;;;;;;5047718;28;20193;-65
2021/12/18 01:44:56;;;;;;;59.20;30.47;;;7.20;99.90;;;;;;5079059;28;20230;-65
2021/12/18 01:52:58;;;;;;;58.50;29.60;;;7.20;99.90;;;;;;5081542;28;20195;-64
2021/12/18 01:55:28;;;;;;;55.27;29.70;;;7.20;99.90;;;;;;5065453;28;20867;-65
2021/12/18 01:57:59;;;;;;;58.17;30.07;;;7.20;99.90;;;;;;5080414;28;20223;-65
2021/12/18 02:00:31;;;;;;;54.47;30.00;;;7.20;99.90;;;;;;5081601;28;20616;-65
2021/12/18 02:02:59;;;;;;;57.60;29.20;;;7.20;99.90;;;;;;5081795;28;20203;-65
2021/12/18 02:05:31;;;;;;;51.73;28.23;;;7.20;99.90;;;;;;5079811;28;20199;-65
2021/12/18 02:08:00;;;;;;;55.53;29.03;;;7.30;99.90;;;;;;5080940;28;20191;-64
2021/12/18 02:10:31;;;;;;;57.33;28.03;;;7.30;99.90;;;;;;5061605;28;20250;-65
2021/12/18 02:13:08;;;;;;;50.20;27.17;;;7.30;99.90;;;;;;5064510;28;20191;-65
2021/12/18 02:21:15;;;;;;;53.60;28.60;;;7.30;99.90;;;;;;5081018;28;20757;-65
2021/12/18 02:23:44;;;;;;;53.50;27.13;;;7.30;99.90;;;;;;5079801;28;20250;-65
2021/12/18 02:26:13;;;;;;;51.53;26.07;;;7.30;99.90;;;;;;5085601;28;20238;-65
2021/12/18 02:28:44;;;;;;;50.73;26.60;;;7.30;99.90;;;;;;5082470;28;20195;-65
2021/12/18 02:31:13;;;;;;;54.03;26.97;;;7.30;99.90;;;;;;5082032;28;20212;-65
2021/12/18 02:33:41;;;;;;;53.83;26.13;;;7.30;99.90;;;;;;5083473;28;20207;-65
2021/12/18 02:36:22;;;;;;;50.93;26.80;;;7.30;99.90;;;;;;5081077;28;20550;-65
2021/12/18 02:39:05;;;;;;;51.03;26.47;;;7.30;99.90;;;;;;5083782;28;20622;-65
2021/12/18 02:41:37;;;;;;;54.13;25.97;;;7.30;99.90;;;;;;5076097;28;20234;-65
2021/12/18 02:44:08;;;;;;;56.17;26.87;;;7.30;99.90;;;;;;5081712;28;20597;-65
2021/12/18 02:46:37;;;;;;;54.40;26.93;;;7.30;99.90;;;;;;5083783;28;20195;-65
2021/12/18 02:49:10;;;;;;;50.13;24.87;;;7.30;99.90;;;;;;5078476;28;20287;-65
2021/12/18 02:51:41;;;;;;;48.10;23.73;;;7.30;99.90;;;;;;5077277;28;20294;-64
2021/12/18 02:54:10;;;;;;;51.27;25.27;;;7.30;99.90;;;;;;5061114;28;20293;-65
2021/12/18 02:56:41;;;;;;;52.47;25.63;;;7.30;99.90;;;;;;5083096;28;20207;-65
2021/12/18 02:59:10;;;;;;;46.63;24.30;;;7.30;99.90;;;;;;5059707;28;20273;-64
2021/12/18 03:01:40;;;;;;;51.67;25.20;;;7.30;99.90;;;;;;5081793;28;20792;-65
2021/12/18 03:04:16;;;;;;;54.23;25.07;;;7.30;99.90;;;;;;5080248;28;20614;-65
2021/12/18 03:06:50;;;;;;;53.43;24.87;;;7.30;99.90;;;;;;5085011;28;20744;-65
2021/12/18 03:23:26;;;;;;;52.83;25.47;;;7.30;99.90;;;;;;5049083;28;20702;-65
2021/12/18 03:25:56;;;;;;;54.50;25.53;;;7.30;99.90;;;;;;5089707;28;20592;-65
2021/12/18 03:28:25;;;;;;;53.23;25.13;;;7.30;99.90;;;;;;5089758;28;20204;-65
2021/12/18 03:30:56;;;;;;;56.33;26.33;;;7.30;99.90;;;;;;5070639;28;20196;-65
2021/12/18 03:33:26;;;;;;;52.10;24.47;;;7.20;99.90;;;;;;5083286;28;20227;-65
2021/12/18 03:35:55;;;;;;;58.27;25.87;;;7.30;99.90;;;;;;5063613;28;20203;-65
2021/12/18 03:38:25;;;;;;;56.20;25.50;;;7.30;99.90;;;;;;5089074;28;20195;-65
2021/12/18 03:40:54;;;;;;;61.37;26.33;;;7.30;99.90;;;;;;5079799;28;20971;-65
2021/12/18 03:43:24;;;;;;;62.47;28.03;;;7.30;99.90;;;;;;5058730;28;20187;-65
2021/12/18 03:45:52;;;;;;;58.70;27.13;;;7.20;99.90;;;;;;5085729;28;20632;-65
2021/12/18 03:48:21;;;;;;;54.70;25.00;;;7.30;99.90;;;;;;5083067;28;20256;-65
2021/12/18 03:50:52;;;;;;;53.47;25.53;;;7.20;99.90;;;;;;5065657;28;20622;-65
2021/12/18 03:53:22;;;;;;;58.30;26.23;;;7.20;99.90;;;;;;5081215;28;20698;-65
2021/12/18 03:55:52;;;;;;;60.27;27.53;;;7.30;99.90;;;;;;5062451;28;20693;-64
2021/12/18 03:58:22;;;;;;;59.67;26.43;;;7.20;99.90;;;;;;5070027;28;20187;-64
2021/12/18 04:00:53;;;;;;;57.53;26.83;;;7.20;99.90;;;;;;5088817;28;20551;-65
2021/12/18 04:03:22;;;;;;;59.90;28.47;;;7.20;99.90;;;;;;5077931;28;20278;-65
2021/12/18 04:05:51;;;;;;;61.30;26.80;;;7.20;99.90;;;;;;5064675;28;20928;-65
2021/12/18 04:08:20;;;;;;;58.53;26.47;;;7.20;99.90;;;;;;5064019;28;20584;-64
2021/12/18 04:10:48;;;;;;;61.23;28.10;;;7.20;99.90;;;;;;5085327;28;20705;-65
2021/12/18 04:13:18;;;;;;;59.43;25.83;;;7.20;99.90;;;;;;5044793;28;20239;-65
2021/12/18 04:15:48;;;;;;;53.97;25.73;;;7.20;99.90;;;;;;5088212;28;20242;-65
2021/12/18 04:18:17;;;;;;;54.97;25.53;;;7.20;99.90;;;;;;5083629;28;20613;-65
2021/12/18 04:20:46;;;;;;;61.23;27.37;;;7.20;99.90;;;;;;5067936;28;20198;-65
2021/12/18 04:23:16;;;;;;;64.00;28.57;;;7.20;99.90;;;;;;5064289;28;20659;-65
2021/12/18 04:25:45;;;;;;;64.37;29.40;;;7.20;99.90;;;;;;5062028;28;20912;-65
2021/12/18 04:28:14;;;;;;;67.97;29.17;;;7.20;99.90;;;;;;5083566;28;20602;-65
2021/12/18 04:30:44;;;;;;;70.20;30.47;;;7.20;99.90;;;;;;5068882;28;20203;-65
2021/12/18 04:33:12;;;;;;;60.87;27.07;;;7.20;99.90;;;;;;5084650;28;20306;-65
2021/12/18 04:35:41;;;;;;;66.97;29.07;;;7.20;99.90;;;;;;5069282;28;20258;-65
2021/12/18 04:38:10;;;;;;;66.97;30.27;;;7.20;99.90;;;;;;5079902;28;20204;-65
2021/12/18 04:40:40;;;;;;;67.20;28.27;;;7.20;99.90;;;;;;5081359;28;20193;-64
2021/12/18 04:43:08;;;;;;;73.77;29.87;;;7.20;99.90;;;;;;5085879;28;20196;-65
2021/12/18 04:45:37;;;;;;;65.97;29.23;;;7.20;99.90;;;;;;5080983;28;20202;-65
2021/12/18 04:48:08;;;;;;;69.17;30.20;;;7.20;99.90;;;;;;5069444;28;20742;-65
2021/12/18 04:50:36;;;;;;;66.83;28.50;;;7.20;99.90;;;;;;5081449;28;20195;-65
2021/12/18 04:53:04;;;;;;;69.23;29.87;;;7.20;99.90;;;;;;5082738;28;20753;-65
2021/12/18 04:55:34;;;;;;;65.80;28.67;;;7.20;99.90;;;;;;5083680;28;20249;-65
2021/12/18 04:58:02;;;;;;;76.13;30.47;;;7.20;99.90;;;;;;5088404;28;20187;-65
2021/12/18 05:00:39;;;;;;;70.30;28.93;;;7.20;99.90;;;;;;5063466;28;20258;-64
2021/12/18 05:03:12;;;;;;;73.53;31.00;;;7.20;99.90;;;;;;5084992;28;20206;-65
2021/12/18 05:05:41;;;;;;;71.23;29.57;;;7.10;99.90;;;;;;5077357;28;20275;-65
2021/12/18 05:08:09;;;;;;;67.00;28.10;;;7.10;99.90;;;;;;5070998;28;20785;-64
2021/12/18 05:10:38;;;;;;;69.53;28.80;;;7.20;99.90;;;;;;5078550;28;20719;-65
2021/12/18 05:13:07;;;;;;;71.30;28.63;;;7.20;99.90;;;;;;5085498;28;20302;-65
2021/12/18 05:15:35;;;;;;;65.57;27.83;;;7.20;99.90;;;;;;5086078;28;20223;-65
2021/12/18 05:18:04;;;;;;;64.70;28.20;;;7.20;99.90;;;;;;5077311;28;20222;-65
2021/12/18 05:20:34;;;;;;;73.30;27.93;;;7.20;99.90;;;;;;5080046;28;20200;-65
2021/12/18 05:23:04;;;;;;;71.60;29.50;;;7.20;99.90;;;;;;5083268;28;20198;-65
2021/12/18 05:25:33;;;;;;;70.83;28.60;;;7.20;99.90;;;;;;5079171;28;20226;-65
2021/12/18 05:28:01;;;;;;;68.30;27.30;;;7.20;99.90;;;;;;5081634;28;20196;-65
2021/12/18 05:30:30;;;;;;;70.87;28.50;;;7.20;99.90;;;;;;5081590;28;20287;-65
2021/12/18 05:32:59;;;;;;;68.73;27.50;;;7.20;99.90;;;;;;5080688;28;20621;-65
2021/12/18 05:35:29;;;;;;;72.37;28.33;;;7.20;99.90;;;;;;5082438;28;20207;-65
2021/12/18 05:38:05;;;;;;;68.97;27.60;;;7.20;99.90;;;;;;5059538;28;20241;-65
2021/12/18 05:40:37;;;;;;;64.07;27.20;;;7.20;99.90;;;;;;5077160;28;20232;-65
2021/12/18 05:43:07;;;;;;;68.90;28.00;;;7.20;99.90;;;;;;5085937;28;20248;-65
2021/12/18 05:45:36;;;;;;;66.37;26.97;;;7.20;99.90;;;;;;5080052;28;20198;-65
2021/12/18 05:48:06;;;;;;;72.33;27.93;;;7.20;99.90;;;;;;5088096;28;20654;-65
2021/12/18 05:50:35;;;;;;;69.17;26.73;;;7.20;99.90;;;;;;5084199;28;20192;-65
2021/12/18 05:53:05;;;;;;;68.80;27.13;;;7.20;99.90;;;;;;5065577;28;20299;-65
2021/12/18 05:55:34;;;;;;;69.50;27.47;;;7.20;99.90;;;;;;5060719;28;20714;-65
2021/12/18 05:58:02;;;;;;;69.83;26.30;;;7.20;99.90;;;;;;5064703;28;20222;-65
2021/12/18 06:00:31;;;;;;;64.97;25.93;;;7.20;99.90;;;;;;5079168;28;20251;-65
2021/12/18 06:03:12;;;;;;;69.37;26.37;;;7.20;99.90;;;;;;5080707;28;20222;-65
2021/12/18 06:06:18;;;;;;;66.30;24.87;;;7.20;99.90;;;;;;5074530;28;20330;-65
2021/12/18 06:08:48;;;;;;;66.77;25.33;;;7.20;99.90;;;;;;5066996;28;20776;-65
2021/12/18 06:11:19;;;;;;;68.23;24.60;;;7.20;99.90;;;;;;5081174;28;20203;-65
2021/12/18 06:13:49;;;;;;;66.63;25.20;;;7.20;99.90;;;;;;5080443;28;20364;-65
2021/12/18 06:16:19;;;;;;;73.83;27.00;;;7.20;99.90;;;;;;5061779;28;20287;-65
2021/12/18 06:18:50;;;;;;;69.27;24.77;;;7.20;99.90;;;;;;5085601;28;20670;-65
2021/12/18 06:21:22;;;;;;;61.93;24.73;;;7.20;99.90;;;;;;5065297;28;20278;-65
2021/12/18 06:23:54;;;;;;;65.07;25.60;;;7.20;99.90;;;;;;5081412;28;20686;-65
2021/12/18 06:26:27;;;;;;;68.50;24.97;;;7.20;99.90;;;;;;5081418;28;20266;-65
2021/12/18 06:28:56;;;;;;;67.23;25.47;;;7.20;99.90;;;;;;5077570;28;20188;-65
2021/12/18 06:31:36;;;;;;;59.60;24.50;;;7.20;99.90;;;;;;5090315;28;20198;-65
2021/12/18 06:34:06;;;;;;;65.67;25.40;;;7.20;99.90;;;;;;5079569;28;20244;-65
2021/12/18 06:36:34;;;;;;;65.87;24.03;;;7.10;99.90;;;;;;5077074;28;20199;-65
2021/12/18 06:39:04;;;;;;;62.47;23.93;;;7.10;99.90;;;;;;5084155;28;20344;-65
2021/12/18 06:41:32;;;;;;;65.93;25.33;;;7.10;99.90;;;;;;5056231;28;20188;-65
2021/12/18 06:44:01;;;;;;;66.00;24.70;;;7.10;99.90;;;;;;5079824;28;20293;-65
2021/12/18 06:46:29;;;;;;;67.37;25.67;;;7.10;99.90;;;;;;5060409;28;20667;-65
2021/12/18 06:48:57;;;;;;;71.60;25.67;;;7.10;99.90;;;;;;5066738;28;20248;-65
2021/12/18 06:51:26;;;;;;;70.03;25.57;;;7.10;99.90;;;;;;5067791;28;20195;-65
2021/12/18 06:53:54;;;;;;;77.93;26.40;;;7.10;99.90;;;;;;5097174;28;20306;-65
2021/12/18 06:56:25;;;;;;;75.97;28.03;;;7.10;99.90;;;;;;5073079;28;20218;-65
2021/12/18 06:58:53;;;;;;;74.30;26.13;;;7.10;99.90;;;;;;5086518;28;20282;-65
2021/12/18 07:01:21;;;;;;;78.07;26.07;;;7.10;99.90;;;;;;5060990;28;20237;-65
2021/12/18 07:03:50;;;;;;;82.07;27.03;;;7.10;99.90;;;;;;5085422;28;20227;-65
2021/12/18 07:06:24;;;;;;;78.77;26.93;;;7.10;99.90;;;;;;5089141;28;20204;-65
2021/12/18 07:08:53;;;;;;;78.30;25.93;;;7.10;99.90;;;;;;5069750;28;20195;-65
2021/12/18 07:11:21;;;;;;;80.30;27.40;;;7.10;99.90;;;;;;5082184;28;20179;-65
2021/12/18 07:13:51;;;;;;;75.57;25.90;;;7.10;99.90;;;;;;5082694;28;20232;-65
2021/12/18 07:16:21;;;;;;;79.17;25.57;;;7.10;99.90;;;;;;5063027;28;20539;-65
2021/12/18 07:18:51;;;;;;;83.63;26.80;;;7.10;99.90;;;;;;5067861;28;20203;-65
2021/12/18 07:21:23;;;;;;;86.83;26.67;;;7.10;99.90;;;;;;5044592;28;20796;-65
2021/12/18 07:23:51;;;;;;;73.67;25.67;;;7.10;99.90;;;;;;5056877;28;20714;-65
2021/12/18 07:26:20;;;;;;;82.53;27.13;;;7.10;99.90;;;;;;5062525;28;20189;-65
2021/12/18 07:28:53;;;;;;;79.87;25.40;;;7.10;99.90;;;;;;5057407;28;20255;-65
2021/12/18 07:31:22;;;;;;;78.57;24.97;;;7.10;99.90;;;;;;5063034;28;20220;-65
2021/12/18 07:33:50;;;;;;;79.23;26.13;;;7.10;99.90;;;;;;5061250;28;20299;-65
2021/12/18 07:36:19;;;;;;;90.30;27.50;;;7.10;99.90;;;;;;5063789;28;20696;-65
2021/12/18 07:38:50;;;;;;;84.27;26.07;;;7.10;99.90;;;;;;5063485;28;20226;-65
2021/12/18 07:41:19;;;;;;;88.57;27.70;;;7.10;99.90;;;;;;5069069;28;20273;-65
2021/12/18 07:43:47;;;;;;;82.60;27.23;;;7.10;99.90;;;;;;5063330;28;20213;-65
2021/12/18 07:46:17;;;;;;;88.83;26.73;;;7.10;99.90;;;;;;5065600;28;20222;-65
2021/12/18 07:48:46;;;;;;;83.23;25.77;;;7.10;99.90;;;;;;5059903;28;20325;-65
2021/12/18 07:51:14;;;;;;;89.23;27.27;;;7.10;99.90;;;;;;5058427;28;20201;-64
2021/12/18 07:53:43;;;;;;;89.30;25.73;;;7.10;99.90;;;;;;5035784;28;20216;-65
2021/12/18 07:56:11;;;;;;;89.03;26.13;;;7.10;99.90;;;;;;5057871;28;20794;-65
2021/12/18 07:58:40;;;;;;;91.23;26.77;;;7.10;99.90;;;;;;5060459;28;20261;-65
2021/12/18 08:01:09;;;;;;;81.43;24.87;;;7.00;99.90;;;;;;5056191;28;20246;-65
2021/12/18 08:03:40;;;;;;;87.30;24.43;;;7.00;99.90;;;;;;5059105;28;20609;-64
2021/12/18 08:06:09;;;;;;;86.70;25.33;;;7.00;99.90;;;;;;5073669;28;20846;-65
2021/12/18 08:08:38;;;;;;;95.23;26.83;;;7.00;99.90;;;;;;5067136;28;20197;-65
2021/12/18 08:11:06;;;;;;;91.50;26.27;;;7.00;99.90;;;;;;5063592;28;20209;-65
2021/12/18 08:13:35;;;;;;;100.10;27.07;;;7.00;99.90;;;;;;5066381;28;20266;-65
2021/12/18 08:16:04;;;;;;;101.37;28.87;;;7.00;99.90;;;;;;5091249;28;20225;-65
2021/12/18 08:18:33;;;;;;;106.97;28.17;;;7.00;99.90;;;;;;5079705;28;20250;-65
2021/12/18 08:21:02;;;;;;;109.33;29.03;;;7.00;99.90;;;;;;5068544;28;20212;-65
2021/12/18 08:23:31;;;;;;;108.13;28.80;;;7.00;99.90;;;;;;5086776;28;20227;-65
2021/12/18 08:25:59;;;;;;;109.10;28.40;;;7.00;99.90;;;;;;5089615;28;20192;-65
2021/12/18 08:28:28;;;;;;;97.47;25.83;;;7.00;99.90;;;;;;5091194;28;20229;-65
2021/12/18 08:30:56;;;;;;;99.77;24.80;;;7.00;99.90;;;;;;5070820;28;20242;-65
2021/12/18 08:33:24;;;;;;;101.00;25.17;;;7.00;99.90;;;;;;5077065;28;20200;-65
2021/12/18 08:35:53;;;;;;;94.63;23.63;;;7.00;99.90;;;;;;5087281;28;20246;-65
2021/12/18 08:38:23;;;;;;;100.03;23.83;;;7.00;99.90;;;;;;5086281;28;20196;-65
2021/12/18 08:40:51;;;;;;;89.73;22.80;;;7.10;99.90;;;;;;5082917;28;20251;-65
2021/12/18 08:43:20;;;;;;;94.67;22.73;;;7.00;99.90;;;;;;5089009;28;20192;-65
2021/12/18 08:45:48;;;;;;;94.07;23.77;;;7.10;99.90;;;;;;5088510;28;20199;-65
2021/12/18 08:48:17;;;;;;;89.80;23.17;;;7.00;99.90;;;;;;5092763;28;20286;-65
2021/12/18 08:50:45;;;;;;;93.67;24.27;;;7.00;99.90;;;;;;5082328;28;20206;-65
2021/12/18 08:53:14;;;;;;;81.63;21.80;;;7.10;99.90;;;;;;5083676;28;20291;-64
2021/12/18 08:55:44;;;;;;;94.57;21.97;;;7.10;99.90;;;;;;5080689;28;20224;-64
2021/12/18 08:58:13;;;;;;;88.47;20.50;;;7.10;99.90;;;;;;5080064;28;20207;-65
2021/12/18 09:00:47;;;;;;;88.20;21.17;;;7.10;99.90;;;;;;5078568;28;20623;-65
2021/12/18 09:03:15;;;;;;;87.53;22.27;;;7.10;99.90;;;;;;5045817;28;20191;-64
2021/12/18 09:05:43;;;;;;;93.40;22.67;;;7.10;99.90;;;;;;5087951;28;20286;-65
2021/12/18 09:08:14;;;;;;;93.70;21.73;;;7.10;99.90;;;;;;5080127;28;20274;-65
2021/12/18 09:10:45;;;;;;;97.43;22.33;;;7.10;99.90;;;;;;5079018;28;20196;-65
2021/12/18 09:13:13;;;;;;;92.87;21.57;;;7.20;99.90;;;;;;5069283;28;20271;-65
2021/12/18 09:15:42;;;;;;;102.67;23.80;;;7.20;99.90;;;;;;5076841;28;20230;-65
2021/12/18 09:18:14;;;;;;;97.77;22.30;;;7.20;99.90;;;;;;5081152;28;20203;-64
2021/12/18 09:20:46;;;;;;;99.80;22.73;;;7.20;99.90;;;;;;5056505;28;20187;-65
2021/12/18 09:23:17;;;;;;;90.03;22.73;;;7.20;99.90;;;;;;5087008;28;20666;-65
2021/12/18 09:25:47;;;;;;;106.40;22.93;;;7.20;99.90;;;;;;5089729;28;20191;-65
2021/12/18 09:28:16;;;;;;;93.13;23.37;;;7.30;99.90;;;;;;5076181;28;20208;-65
2021/12/18 09:30:44;;;;;;;97.00;23.30;;;7.30;99.90;;;;;;5072649;28;20188;-65
2021/12/18 09:33:15;;;;;;;95.37;22.60;;;7.30;99.90;;;;;;5094450;28;20240;-65
2021/12/18 09:35:45;;;;;;;103.00;24.10;;;7.30;99.90;;;;;;5079915;28;20240;-65
2021/12/18 09:38:13;;;;;;;107.17;23.70;;;7.30;99.90;;;;;;5080114;28;20230;-65
2021/12/18 09:40:42;;;;;;;104.37;22.73;;;7.20;99.90;;;;;;5075575;28;20231;-65
2021/12/18 09:43:14;;;;;;;103.67;22.43;;;7.20;99.90;;;;;;5077811;28;20229;-65
2021/12/18 09:45:46;;;;;;;96.43;20.33;;;7.20;99.90;;;;;;5084948;28;20230;-65
2021/12/18 09:48:15;;;;;;;104.93;21.30;;;7.20;99.90;;;;;;5082616;28;20234;-65
2021/12/18 09:50:45;;;;;;;106.10;21.50;;;7.20;99.90;;;;;;5080593;28;20230;-65
2021/12/18 09:53:14;;;;;;;90.23;19.40;;;7.20;99.90;;;;;;5070601;28;20189;-64
2021/12/18 09:55:42;;;;;;;81.53;18.30;;;7.20;99.90;;;;;;5086432;28;20235;-65
2021/12/18 09:58:12;;;;;;;90.13;18.90;;;7.20;99.90;;;;;;5083831;28;20280;-65
2021/12/18 10:00:40;;;;;;;82.50;17.33;;;7.20;99.90;;;;;;5082804;28;20227;-65
2021/12/18 10:03:09;;;;;;;77.50;18.10;;;7.20;99.90;;;;;;5083222;28;20255;-65
2021/12/18 10:05:39;;;;;;;78.80;17.20;;;7.20;99.90;;;;;;5080908;28;20226;-65
2021/12/18 10:08:16;;;;;;;73.33;18.07;;;7.20;99.90;;;;;;5091716;28;20192;-65
2021/12/18 10:11:05;;;;;;;66.67;16.60;;;7.20;99.90;;;;;;5082661;28;20207;-65
2021/12/18 10:13:53;;;;;;;68.07;16.40;;;7.20;99.90;;;;;;5087065;28;20227;-65
2021/12/18 10:16:26;;;;;;;64.97;16.47;;;7.20;99.90;;;;;;5059851;28;20207;-65
2021/12/18 10:18:55;;;;;;;76.17;18.13;;;7.30;99.90;;;;;;5068555;28;20600;-65
2021/12/18 10:21:29;;;;;;;74.67;17.57;;;7.30;99.90;;;;;;5077504;28;20197;-65
2021/12/18 10:24:14;;;;;;;75.03;16.83;;;7.30;99.90;;;;;;5085090;28;20270;-65
2021/12/18 10:26:45;;;;;;;65.27;16.73;;;7.30;99.90;;;;;;5067215;28;20199;-65
2021/12/18 10:29:30;;;;;;;72.23;17.03;;;7.30;99.90;;;;;;5092538;28;20194;-64
2021/12/18 10:32:06;;;;;;;62.50;15.37;;;7.30;99.90;;;;;;5080349;28;20199;-65
2021/12/18 10:34:35;;;;;;;64.40;15.30;;;7.30;99.90;;;;;;5076788;28;20202;-65
2021/12/18 10:37:16;;;;;;;52.93;13.80;;;7.30;99.90;;;;;;5089846;28;20215;-65
2021/12/18 10:39:47;;;;;;;52.73;14.33;;;7.20;99.90;;;;;;5087099;28;20204;-65
2021/12/18 10:42:21;;;;;;;55.17;14.33;;;7.30;99.90;;;;;;5088176;28;20192;-64
2021/12/18 10:45:15;;;;;;;59.30;14.83;;;7.30;99.90;;;;;;5076187;28;20647;-65
2021/12/18 10:47:58;;;;;;;50.93;13.13;;;7.30;99.90;;;;;;5076451;28;20196;-65
2021/12/18 10:50:33;;;;;;;48.80;13.27;;;7.30;99.90;;;;;;5084136;28;20213;-65
2021/12/18 10:53:05;;;;;;;50.17;13.43;;;7.20;99.90;;;;;;5083412;28;20818;-65
2021/12/18 10:55:39;;;;;;;50.57;13.83;;;7.30;99.90;;;;;;5083678;28;20653;-65
2021/12/18 10:58:10;;;;;;;52.17;12.90;;;7.30;99.90;;;;;;5073828;28;20939;-65
2021/12/18 11:00:47;;;;;;;38.97;12.33;;;7.30;99.90;;;;;;5077470;28;20199;-65
2021/12/18 11:03:34;;;;;;;42.80;13.90;;;7.30;99.90;;;;;;5080253;28;20183;-65
2021/12/18 11:06:21;;;;;;;40.13;13.03;;;7.30;99.90;;;;;;5075882;28;20202;-65
2021/12/18 11:08:53;;;;;;;44.67;13.50;;;7.30;99.90;;;;;;5078929;28;20279;-65
2021/12/18 11:14:11;;;;;;;38.63;12.60;;;7.30;99.90;;;;;;5083935;28;20634;-65
2021/12/18 11:16:43;;;;;;;38.67;12.60;;;7.30;99.90;;;;;;5088502;28;20253;-65
2021/12/18 11:19:14;;;;;;;37.67;12.50;;;7.30;99.90;;;;;;5087858;28;20191;-65
2021/12/18 11:21:44;;;;;;;36.73;12.53;;;7.30;99.90;;;;;;5086539;28;20631;-65
2021/12/18 11:24:13;;;;;;;41.53;12.70;;;7.30;99.90;;;;;;5069242;28;20180;-65
2021/12/18 11:26:46;;;;;;;42.27;14.07;;;7.30;99.90;;;;;;5062984;28;20223;-65
2021/12/18 11:29:23;;;;;;;45.53;14.30;;;7.40;99.90;;;;;;5068460;28;20215;-65
2021/12/18 11:31:54;;;;;;;44.17;15.03;;;7.40;99.90;;;;;;5078272;28;20242;-65
2021/12/18 11:34:22;;;;;;;52.60;15.77;;;7.40;99.90;;;;;;5076612;28;20192;-65
2021/12/18 11:36:52;;;;;;;45.67;14.40;;;7.40;99.90;;;;;;5075637;28;20366;-65
2021/12/18 11:39:29;;;;;;;45.00;15.13;;;7.40;99.90;;;;;;5088805;28;20191;-65
2021/12/18 11:42:01;;;;;;;47.07;14.87;;;7.50;99.90;;;;;;5077184;28;20212;-65
2021/12/18 11:44:33;;;;;;;44.50;14.30;;;7.50;99.90;;;;;;5086967;28;20230;-65
2021/12/18 11:47:27;;;;;;;41.60;14.80;;;7.50;99.90;;;;;;5087346;28;20199;-65
2021/12/18 11:49:58;;;;;;;43.57;15.77;;;7.50;99.90;;;;;;5088522;28;20199;-65
2021/12/18 11:52:27;;;;;;;45.37;15.70;;;7.50;99.90;;;;;;5083414;28;20748;-65
2021/12/18 11:54:56;;;;;;;47.57;15.50;;;7.60;99.90;;;;;;5081938;28;20270;-65
2021/12/18 11:57:43;;;;;;;32.57;12.33;;;7.50;99.90;;;;;;5076700;28;20306;-64
2021/12/18 12:00:35;;;;;;;36.07;13.00;;;7.60;99.90;;;;;;5083863;28;20192;-65
2021/12/18 12:03:10;;;;;;;36.17;12.33;;;7.70;99.90;;;;;;5078448;28;20253;-65
2021/12/18 12:05:41;;;;;;;28.67;11.27;;;7.70;99.90;;;;;;5069201;28;20688;-65
2021/12/18 12:08:29;;;;;;;27.00;10.73;;;7.70;99.90;;;;;;5063916;28;20214;-65
2021/12/18 12:11:17;;;;;;;29.47;9.80;;;7.60;99.90;;;;;;5080210;28;20202;-65
2021/12/18 12:14:04;;;;;;;28.77;11.17;;;7.60;99.90;;;;;;5066052;28;20228;-65
2021/12/18 12:17:04;;;;;;;27.77;10.70;;;7.70;99.90;;;;;;5086612;28;20700;-64
2021/12/18 12:19:51;;;;;;;34.70;10.53;;;7.60;99.90;;;;;;5055980;28;20282;-65
2021/12/18 12:22:45;;;;;;;31.87;10.77;;;7.60;99.90;;;;;;5086705;28;20191;-65
2021/12/18 12:25:16;;;;;;;33.47;11.30;;;7.50;99.90;;;;;;5077919;28;20655;-64
2021/12/18 12:27:48;;;;;;;29.57;10.97;;;7.40;99.90;;;;;;5074564;28;20602;-65
2021/12/18 12:30:33;;;;;;;26.63;9.53;;;7.50;99.90;;;;;;5055060;28;20653;-65
2021/12/18 12:33:04;;;;;;;27.07;10.33;;;7.50;99.90;;;;;;5041295;28;20203;-65
2021/12/18 12:35:58;;;;;;;27.43;9.67;;;7.60;99.90;;;;;;5078911;28;20263;-65
2021/12/18 12:38:29;;;;;;;21.63;9.43;;;7.60;99.90;;;;;;5077612;28;20203;-65
2021/12/18 12:41:18;;;;;;;24.73;9.23;;;7.60;99.90;;;;;;5077665;28;20227;-65
2021/12/18 12:43:46;;;;;;;24.47;9.50;;;7.60;99.90;;;;;;5056808;28;20195;-65
2021/12/18 12:46:17;;;;;;;26.80;8.77;;;7.60;99.90;;;;;;5062032;28;20219;-65
2021/12/18 12:49:03;;;;;;;24.03;9.03;;;7.60;99.90;;;;;;5065452;28;20203;-65
2021/12/18 12:52:09;;;;;;;22.93;9.67;;;7.70;99.90;;;;;;5068609;28;20191;-65
2021/12/18 12:54:54;;;;;;;22.93;9.13;;;7.70;99.90;;;;;;5032760;28;20606;-65
2021/12/18 12:57:45;;;;;;;23.70;9.83;;;7.80;99.90;;;;;;5079080;28;20226;-65
2021/12/18 13:00:42;;;;;;;21.83;9.60;;;7.80;99.90;;;;;;5059757;28;20250;-65
2021/12/18 13:03:25;;;;;;;28.40;10.30;;;7.80;99.90;;;;;;5077275;28;20203;-65
2021/12/18 13:06:07;;;;;;;34.63;12.13;;;7.80;99.90;;;;;;5053362;28;20222;-65
2021/12/18 13:08:40;;;;;;;36.87;13.37;;;7.70;99.90;;;;;;5078090;28;20278;-65
2021/12/18 13:11:15;;;;;;;49.07;14.77;;;7.70;99.90;;;;;;5075172;28;20192;-65
2021/12/18 13:13:44;;;;;;;43.83;14.07;;;7.70;99.90;;;;;;5078569;28;20235;-65
2021/12/18 13:16:14;;;;;;;38.53;13.87;;;7.70;99.90;;;;;;5075054;28;20666;-65
2021/12/18 13:18:44;;;;;;;45.37;15.17;;;7.70;99.90;;;;;;5068161;28;20258;-65
2021/12/18 13:21:15;;;;;;;51.20;16.17;;;7.70;99.90;;;;;;5071554;28;20232;-65
2021/12/18 13:23:53;;;;;;;55.33;17.40;;;7.70;99.90;;;;;;5073709;28;20231;-65
2021/12/18 13:26:28;;;;;;;59.60;19.67;;;7.70;99.90;;;;;;5063436;28;20244;-65
2021/12/18 13:28:59;;;;;;;63.53;19.63;;;7.70;99.90;;;;;;5069773;28;20286;-65
2021/12/18 13:31:31;;;;;;;69.90;20.87;;;7.70;99.90;;;;;;5080070;28;21384;-65
2021/12/18 13:34:03;;;;;;;57.13;18.10;;;7.70;99.90;;;;;;5071596;28;20608;-65